WON1829 WATT-WATC
Flight info
| Callsign | WON1829 |
|---|---|
| Flight time | 0h 41m |
| Altitude | 14500 |
| Route | MOF |
| Aircraft | AT76/M-SDFGIRY/S |
Departure
| Time | 2026-05-05 05:30 |
|---|---|
| Airport | El Tari Airport (WATT) |
Arrival
| Time | 2026-05-05 06:11 |
|---|---|
| Airport | Frans Xavier Seda Airport (WATC) |
| Time | Latitude | Longitude | Altitude | Speed | Heading |
|---|---|---|---|---|---|
| 2026-05-05 05:05 | -10.17004 | 123.66786 | 341 ft | 0 kts | 358° |
| 2026-05-05 05:23 | -10.16997 | 123.66783 | 337 ft | 0 kts | 320° |
| 2026-05-05 05:23 | -10.16998 | 123.66779 | 337 ft | 0 kts | 262° |
| 2026-05-05 05:23 | -10.17009 | 123.66738 | 340 ft | 11 kts | 256° |
| 2026-05-05 05:23 | -10.17042 | 123.66641 | 340 ft | 14 kts | 219° |
| 2026-05-05 05:24 | -10.17087 | 123.66643 | 338 ft | 5 kts | 166° |
| 2026-05-05 05:24 | -10.17115 | 123.66650 | 340 ft | 3 kts | 165° |
| 2026-05-05 05:24 | -10.17135 | 123.66655 | 341 ft | 3 kts | 166° |
| 2026-05-05 05:24 | -10.17158 | 123.66661 | 344 ft | 3 kts | 166° |
| 2026-05-05 05:25 | -10.17180 | 123.66666 | 342 ft | 4 kts | 168° |
| 2026-05-05 05:25 | -10.17223 | 123.66676 | 343 ft | 10 kts | 166° |
| 2026-05-05 05:25 | -10.17272 | 123.66636 | 347 ft | 12 kts | 264° |
| 2026-05-05 05:25 | -10.17301 | 123.66502 | 343 ft | 23 kts | 255° |
| 2026-05-05 05:26 | -10.17340 | 123.66337 | 343 ft | 24 kts | 257° |
| 2026-05-05 05:26 | -10.17379 | 123.66171 | 347 ft | 25 kts | 257° |
| 2026-05-05 05:26 | -10.17396 | 123.66027 | 341 ft | 11 kts | 261° |
| 2026-05-05 05:26 | -10.17411 | 123.66024 | 338 ft | 2 kts | 164° |
| 2026-05-05 05:27 | -10.17416 | 123.66033 | 336 ft | 3 kts | 106° |
| 2026-05-05 05:27 | -10.17410 | 123.66046 | 338 ft | 8 kts | 72° |
| 2026-05-05 05:27 | -10.17409 | 123.66051 | 338 ft | 0 kts | 76° |
| 2026-05-05 05:29 | -10.17406 | 123.66060 | 337 ft | 14 kts | 76° |
| 2026-05-05 05:29 | -10.17336 | 123.66352 | 345 ft | 70 kts | 76° |
| 2026-05-05 05:29 | -10.17184 | 123.66989 | 339 ft | 112 kts | 76° |
| 2026-05-05 05:30 | -10.16985 | 123.67802 | 623 ft | 123 kts | 78° |
| 2026-05-05 05:30 | -10.16756 | 123.68636 | 1081 ft | 124 kts | 76° |
| 2026-05-05 05:30 | -10.16460 | 123.69463 | 1498 ft | 128 kts | 72° |
| 2026-05-05 05:30 | -10.15699 | 123.70095 | 1582 ft | 167 kts | 19° |
| 2026-05-05 05:31 | -10.14481 | 123.69871 | 1651 ft | 194 kts | 329° |
| 2026-05-05 05:31 | -10.13679 | 123.68782 | 1989 ft | 197 kts | 284° |
| 2026-05-05 05:31 | -10.13393 | 123.67420 | 2386 ft | 200 kts | 279° |
| 2026-05-05 05:31 | -10.13170 | 123.66006 | 2718 ft | 203 kts | 278° |
| 2026-05-05 05:32 | -10.12790 | 123.64650 | 2960 ft | 200 kts | 308° |
| 2026-05-05 05:32 | -10.11748 | 123.63782 | 3238 ft | 194 kts | 335° |
| 2026-05-05 05:32 | -10.10596 | 123.63052 | 3520 ft | 196 kts | 331° |
| 2026-05-05 05:32 | -10.09486 | 123.62259 | 3870 ft | 194 kts | 328° |
| 2026-05-05 05:33 | -10.08416 | 123.61419 | 4229 ft | 196 kts | 322° |
| 2026-05-05 05:33 | -10.07443 | 123.60441 | 4497 ft | 197 kts | 319° |
| 2026-05-05 05:33 | -10.06444 | 123.59494 | 4767 ft | 196 kts | 323° |
| 2026-05-05 05:33 | -10.05426 | 123.58561 | 5029 ft | 198 kts | 321° |
| 2026-05-05 05:34 | -10.04440 | 123.57606 | 5289 ft | 199 kts | 321° |
| 2026-05-05 05:34 | -10.03427 | 123.56651 | 5555 ft | 199 kts | 321° |
| 2026-05-05 05:34 | -10.02407 | 123.55698 | 5819 ft | 199 kts | 320° |
| 2026-05-05 05:34 | -10.01393 | 123.54732 | 6074 ft | 200 kts | 320° |
| 2026-05-05 05:35 | -10.00373 | 123.53768 | 6330 ft | 201 kts | 321° |
| 2026-05-05 05:35 | -9.99347 | 123.52803 | 6583 ft | 201 kts | 320° |
| 2026-05-05 05:35 | -9.98327 | 123.51837 | 6831 ft | 201 kts | 320° |
| 2026-05-05 05:35 | -9.97298 | 123.50867 | 7051 ft | 202 kts | 320° |
| 2026-05-05 05:36 | -9.96268 | 123.49892 | 7303 ft | 202 kts | 320° |
| 2026-05-05 05:36 | -9.95252 | 123.48931 | 7539 ft | 202 kts | 320° |
| 2026-05-05 05:36 | -9.94220 | 123.47960 | 7767 ft | 202 kts | 320° |
| 2026-05-05 05:36 | -9.93191 | 123.46987 | 8000 ft | 202 kts | 320° |
| 2026-05-05 05:37 | -9.92163 | 123.46012 | 8259 ft | 202 kts | 320° |
| 2026-05-05 05:37 | -9.91132 | 123.45042 | 8504 ft | 202 kts | 320° |
| 2026-05-05 05:37 | -9.90103 | 123.44073 | 8745 ft | 202 kts | 319° |
| 2026-05-05 05:37 | -9.89083 | 123.43100 | 8991 ft | 201 kts | 320° |
| 2026-05-05 05:38 | -9.88057 | 123.42138 | 9226 ft | 201 kts | 320° |
| 2026-05-05 05:38 | -9.87034 | 123.41176 | 9463 ft | 201 kts | 319° |
| 2026-05-05 05:38 | -9.86016 | 123.40210 | 9683 ft | 201 kts | 319° |
| 2026-05-05 05:38 | -9.84996 | 123.39247 | 9894 ft | 200 kts | 319° |
| 2026-05-05 05:39 | -9.83973 | 123.38284 | 10078 ft | 201 kts | 319° |
| 2026-05-05 05:39 | -9.82947 | 123.37313 | 10255 ft | 202 kts | 319° |
| 2026-05-05 05:39 | -9.81930 | 123.36354 | 10446 ft | 202 kts | 319° |
| 2026-05-05 05:39 | -9.80899 | 123.35383 | 10630 ft | 203 kts | 319° |
| 2026-05-05 05:40 | -9.79863 | 123.34404 | 10804 ft | 204 kts | 319° |
| 2026-05-05 05:40 | -9.78825 | 123.33423 | 10983 ft | 204 kts | 318° |
| 2026-05-05 05:40 | -9.77780 | 123.32439 | 11170 ft | 205 kts | 318° |
| 2026-05-05 05:40 | -9.76735 | 123.31453 | 11341 ft | 206 kts | 318° |
| 2026-05-05 05:41 | -9.75684 | 123.30460 | 11521 ft | 207 kts | 318° |
| 2026-05-05 05:41 | -9.74628 | 123.29465 | 11696 ft | 207 kts | 318° |
| 2026-05-05 05:41 | -9.73570 | 123.28466 | 11869 ft | 208 kts | 318° |
| 2026-05-05 05:41 | -9.72510 | 123.27465 | 12043 ft | 209 kts | 318° |
| 2026-05-05 05:42 | -9.71445 | 123.26463 | 12207 ft | 210 kts | 318° |
| 2026-05-05 05:42 | -9.70374 | 123.25453 | 12381 ft | 210 kts | 317° |
| 2026-05-05 05:42 | -9.69301 | 123.24439 | 12546 ft | 211 kts | 317° |
| 2026-05-05 05:42 | -9.68225 | 123.23425 | 12709 ft | 212 kts | 317° |
| 2026-05-05 05:43 | -9.67144 | 123.22406 | 12868 ft | 212 kts | 317° |
| 2026-05-05 05:43 | -9.66061 | 123.21384 | 13029 ft | 213 kts | 317° |
| 2026-05-05 05:43 | -9.64976 | 123.20361 | 13181 ft | 213 kts | 317° |
| 2026-05-05 05:43 | -9.63888 | 123.19335 | 13332 ft | 214 kts | 317° |
| 2026-05-05 05:44 | -9.62792 | 123.18304 | 13488 ft | 215 kts | 317° |
| 2026-05-05 05:44 | -9.61699 | 123.17271 | 13629 ft | 215 kts | 317° |
| 2026-05-05 05:44 | -9.60597 | 123.16234 | 13759 ft | 216 kts | 317° |
| 2026-05-05 05:44 | -9.59510 | 123.15209 | 13882 ft | 216 kts | 317° |
| 2026-05-05 05:45 | -9.58409 | 123.14171 | 14009 ft | 216 kts | 317° |
| 2026-05-05 05:45 | -9.57306 | 123.13131 | 14133 ft | 217 kts | 317° |
| 2026-05-05 05:45 | -9.56201 | 123.12091 | 14253 ft | 217 kts | 317° |
| 2026-05-05 05:45 | -9.55087 | 123.11040 | 14306 ft | 221 kts | 317° |
| 2026-05-05 05:46 | -9.53947 | 123.09967 | 14334 ft | 226 kts | 317° |
| 2026-05-05 05:46 | -9.52787 | 123.08873 | 14352 ft | 230 kts | 316° |
| 2026-05-05 05:46 | -9.51602 | 123.07757 | 14358 ft | 234 kts | 317° |
| 2026-05-05 05:46 | -9.50401 | 123.06625 | 14362 ft | 237 kts | 317° |
| 2026-05-05 05:47 | -9.49184 | 123.05479 | 14363 ft | 240 kts | 317° |
| 2026-05-05 05:47 | -9.47953 | 123.04319 | 14362 ft | 243 kts | 317° |
| 2026-05-05 05:47 | -9.46726 | 123.03163 | 14362 ft | 245 kts | 317° |
| 2026-05-05 05:47 | -9.45474 | 123.01984 | 14364 ft | 247 kts | 317° |
| 2026-05-05 05:48 | -9.44211 | 123.00795 | 14369 ft | 248 kts | 316° |
| 2026-05-05 05:48 | -9.42947 | 122.99604 | 14367 ft | 249 kts | 317° |
| 2026-05-05 05:48 | -9.41673 | 122.98405 | 14367 ft | 250 kts | 317° |
| 2026-05-05 05:48 | -9.40397 | 122.97203 | 14369 ft | 251 kts | 317° |
| 2026-05-05 05:49 | -9.39114 | 122.95996 | 14368 ft | 251 kts | 317° |
| 2026-05-05 05:49 | -9.37831 | 122.94788 | 14367 ft | 252 kts | 317° |
| 2026-05-05 05:49 | -9.36544 | 122.93580 | 14367 ft | 253 kts | 317° |
| 2026-05-05 05:49 | -9.35266 | 122.92359 | 14367 ft | 253 kts | 316° |
| 2026-05-05 05:50 | -9.33994 | 122.91125 | 14367 ft | 253 kts | 315° |
| 2026-05-05 05:50 | -9.32737 | 122.89878 | 14367 ft | 253 kts | 315° |
| 2026-05-05 05:50 | -9.31483 | 122.88621 | 14366 ft | 254 kts | 315° |
| 2026-05-05 05:50 | -9.30247 | 122.87377 | 14368 ft | 254 kts | 315° |
| 2026-05-05 05:51 | -9.28985 | 122.86125 | 14369 ft | 254 kts | 315° |
| 2026-05-05 05:51 | -9.27721 | 122.84874 | 14368 ft | 254 kts | 315° |
| 2026-05-05 05:51 | -9.26457 | 122.83624 | 14370 ft | 254 kts | 315° |
| 2026-05-05 05:51 | -9.25193 | 122.82374 | 14369 ft | 254 kts | 315° |
| 2026-05-05 05:52 | -9.23926 | 122.81124 | 14366 ft | 254 kts | 315° |
| 2026-05-05 05:52 | -9.22660 | 122.79873 | 14367 ft | 254 kts | 315° |
| 2026-05-05 05:52 | -9.21393 | 122.78623 | 14367 ft | 254 kts | 315° |
| 2026-05-05 05:52 | -9.20130 | 122.77375 | 14372 ft | 254 kts | 315° |
| 2026-05-05 05:53 | -9.18863 | 122.76125 | 14370 ft | 254 kts | 315° |
| 2026-05-05 05:53 | -9.17600 | 122.74878 | 14370 ft | 254 kts | 315° |
| 2026-05-05 05:53 | -9.16336 | 122.73630 | 14371 ft | 254 kts | 315° |
| 2026-05-05 05:53 | -9.15068 | 122.72379 | 14371 ft | 254 kts | 315° |
| 2026-05-05 05:54 | -9.13819 | 122.71147 | 14371 ft | 254 kts | 315° |
| 2026-05-05 05:54 | -9.12553 | 122.69898 | 14370 ft | 254 kts | 315° |
| 2026-05-05 05:54 | -9.11286 | 122.68647 | 14369 ft | 254 kts | 315° |
| 2026-05-05 05:54 | -9.10014 | 122.67393 | 14369 ft | 254 kts | 315° |
| 2026-05-05 05:55 | -9.08746 | 122.66142 | 14371 ft | 254 kts | 315° |
| 2026-05-05 05:55 | -9.07492 | 122.64906 | 14368 ft | 254 kts | 315° |
| 2026-05-05 05:55 | -9.06210 | 122.63641 | 14368 ft | 254 kts | 315° |
| 2026-05-05 05:55 | -9.04959 | 122.62407 | 14368 ft | 254 kts | 316° |
| 2026-05-05 05:56 | -9.03692 | 122.61157 | 14367 ft | 254 kts | 315° |
| 2026-05-05 05:56 | -9.02425 | 122.59905 | 14368 ft | 254 kts | 316° |
| 2026-05-05 05:56 | -9.01067 | 122.58795 | 14369 ft | 251 kts | 335° |
| 2026-05-05 05:56 | -8.99374 | 122.58412 | 14368 ft | 252 kts | 356° |
| 2026-05-05 05:57 | -8.97619 | 122.58432 | 14371 ft | 253 kts | 4° |
| 2026-05-05 05:57 | -8.95858 | 122.58580 | 14370 ft | 254 kts | 5° |
| 2026-05-05 05:57 | -8.94103 | 122.58742 | 14370 ft | 254 kts | 5° |
| 2026-05-05 05:57 | -8.92340 | 122.58887 | 14369 ft | 254 kts | 4° |
| 2026-05-05 05:58 | -8.90574 | 122.58996 | 14370 ft | 254 kts | 3° |
| 2026-05-05 05:58 | -8.88805 | 122.59097 | 14370 ft | 254 kts | 3° |
| 2026-05-05 05:58 | -8.87040 | 122.59195 | 14371 ft | 254 kts | 3° |
| 2026-05-05 05:58 | -8.85286 | 122.59291 | 14238 ft | 260 kts | 3° |
| 2026-05-05 05:59 | -8.83432 | 122.59395 | 13911 ft | 272 kts | 3° |
| 2026-05-05 05:59 | -8.81501 | 122.59501 | 13561 ft | 281 kts | 3° |
| 2026-05-05 05:59 | -8.79538 | 122.59609 | 13179 ft | 283 kts | 3° |
| 2026-05-05 05:59 | -8.77569 | 122.59716 | 12788 ft | 282 kts | 4° |
| 2026-05-05 06:00 | -8.75610 | 122.59823 | 12411 ft | 281 kts | 4° |
| 2026-05-05 06:00 | -8.73660 | 122.59929 | 12032 ft | 280 kts | 4° |
| 2026-05-05 06:00 | -8.71716 | 122.60035 | 11664 ft | 279 kts | 4° |
| 2026-05-05 06:00 | -8.69798 | 122.60076 | 11300 ft | 273 kts | 353° |
| 2026-05-05 06:01 | -8.67985 | 122.59545 | 10956 ft | 269 kts | 341° |
| 2026-05-05 06:01 | -8.66244 | 122.58857 | 10621 ft | 268 kts | 339° |
| 2026-05-05 06:01 | -8.64536 | 122.58182 | 10293 ft | 267 kts | 341° |
| 2026-05-05 06:01 | -8.62771 | 122.57545 | 9961 ft | 266 kts | 342° |
| 2026-05-05 06:02 | -8.61042 | 122.56966 | 9641 ft | 264 kts | 343° |
| 2026-05-05 06:02 | -8.59313 | 122.56397 | 9271 ft | 259 kts | 343° |
| 2026-05-05 06:02 | -8.57615 | 122.55838 | 8914 ft | 255 kts | 343° |
| 2026-05-05 06:02 | -8.55943 | 122.55285 | 8557 ft | 250 kts | 343° |
| 2026-05-05 06:03 | -8.54310 | 122.54723 | 8196 ft | 246 kts | 343° |
| 2026-05-05 06:03 | -8.52698 | 122.54166 | 7890 ft | 244 kts | 343° |
| 2026-05-05 06:03 | -8.51096 | 122.53617 | 7567 ft | 242 kts | 343° |
| 2026-05-05 06:03 | -8.49608 | 122.52880 | 7257 ft | 239 kts | 325° |
| 2026-05-05 06:04 | -8.48323 | 122.51811 | 6961 ft | 240 kts | 320° |
| 2026-05-05 06:04 | -8.47078 | 122.50696 | 6721 ft | 236 kts | 319° |
| 2026-05-05 06:04 | -8.45907 | 122.49618 | 6384 ft | 222 kts | 312° |
| 2026-05-05 06:04 | -8.45320 | 122.48186 | 6040 ft | 226 kts | 272° |
| 2026-05-05 06:05 | -8.45646 | 122.46650 | 5704 ft | 225 kts | 245° |
| 2026-05-05 06:05 | -8.46382 | 122.45258 | 5365 ft | 225 kts | 235° |
| 2026-05-05 06:05 | -8.47321 | 122.43993 | 5105 ft | 221 kts | 229° |
| 2026-05-05 06:05 | -8.48289 | 122.42850 | 4769 ft | 209 kts | 227° |
| 2026-05-05 06:06 | -8.49217 | 122.41767 | 4447 ft | 200 kts | 227° |
| 2026-05-05 06:06 | -8.50109 | 122.40721 | 4121 ft | 193 kts | 227° |
| 2026-05-05 06:06 | -8.50968 | 122.39707 | 3813 ft | 187 kts | 227° |
| 2026-05-05 06:06 | -8.51796 | 122.38717 | 3518 ft | 182 kts | 228° |
| 2026-05-05 06:07 | -8.52598 | 122.37747 | 3227 ft | 185 kts | 229° |
| 2026-05-05 06:07 | -8.53413 | 122.36755 | 3087 ft | 183 kts | 229° |
| 2026-05-05 06:07 | -8.54218 | 122.35753 | 2827 ft | 181 kts | 230° |
| 2026-05-05 06:07 | -8.54989 | 122.34773 | 2586 ft | 175 kts | 230° |
| 2026-05-05 06:08 | -8.55738 | 122.33804 | 2361 ft | 175 kts | 230° |
| 2026-05-05 06:08 | -8.56450 | 122.32855 | 2154 ft | 165 kts | 231° |
| 2026-05-05 06:08 | -8.57125 | 122.31946 | 1936 ft | 157 kts | 230° |
| 2026-05-05 06:08 | -8.57771 | 122.31091 | 1737 ft | 147 kts | 230° |
| 2026-05-05 06:09 | -8.58361 | 122.30314 | 1536 ft | 132 kts | 230° |
| 2026-05-05 06:09 | -8.58900 | 122.29617 | 1346 ft | 120 kts | 228° |
| 2026-05-05 06:09 | -8.59457 | 122.29013 | 1165 ft | 119 kts | 223° |
| 2026-05-05 06:09 | -8.60029 | 122.28420 | 993 ft | 117 kts | 224° |
| 2026-05-05 06:10 | -8.60588 | 122.27845 | 849 ft | 114 kts | 222° |
| 2026-05-05 06:10 | -8.61119 | 122.27254 | 743 ft | 114 kts | 224° |
| 2026-05-05 06:10 | -8.61626 | 122.26641 | 617 ft | 115 kts | 229° |
| 2026-05-05 06:10 | -8.62135 | 122.26030 | 447 ft | 116 kts | 227° |
| 2026-05-05 06:11 | -8.62635 | 122.25406 | 291 ft | 113 kts | 227° |
| 2026-05-05 06:11 | -8.63137 | 122.24800 | 117 ft | 113 kts | 226° |
| 2026-05-05 06:11 | -8.63634 | 122.24197 | 23 ft | 102 kts | 226° |
| 2026-05-05 06:11 | -8.63974 | 122.23783 | 28 ft | 37 kts | 231° |
| 2026-05-05 06:12 | -8.64091 | 122.23659 | 26 ft | 3 kts | 213° |
| 2026-05-05 06:12 | -8.64099 | 122.23643 | 25 ft | 1 kts | 302° |
| 2026-05-05 06:12 | -8.64084 | 122.23645 | 25 ft | 1 kts | 47° |
| 2026-05-05 06:12 | -8.64028 | 122.23719 | 27 ft | 20 kts | 50° |
| 2026-05-05 06:13 | -8.63945 | 122.23819 | 27 ft | 18 kts | 50° |
| 2026-05-05 06:13 | -8.63879 | 122.23849 | 26 ft | 10 kts | 328° |
| 2026-05-05 06:13 | -8.63821 | 122.23822 | 27 ft | 5 kts | 9° |
| 2026-05-05 06:13 | -8.63789 | 122.23852 | 27 ft | 3 kts | 29° |
| 2026-05-05 06:14 | -8.63771 | 122.23844 | 28 ft | 4 kts | 322° |
| 2026-05-05 06:14 | -8.63748 | 122.23825 | 29 ft | 1 kts | 320° |
| 2026-05-05 06:14 | -8.63745 | 122.23823 | 30 ft | 0 kts | 320° |